Terminal Aerodrome Forecast
Issued by NWS

Home | Current Version | Previous Version | Text Only | Print | Product List | Glossary On
Versions: 1 2 3 4 5 6 7 8 9 10 11 12 13 14 15 16 17 18 19 20
569
FTUS42 KJAX 281345 AAB
TAFCRG
TAF AMD
KCRG 281345Z 2814/2912 26008KT P6SM FEW020 SCT250
     FM282300 20007KT P6SM SCT250
     FM290900 26004KT 5SM BR SCT005=

USA.gov is the U.S. government's official web portal to all federal, state and local government web resources and services.